createdAt,value
2023-03-10T00:00:05.763Z,238.92
2023-03-10T00:01:05.764Z,239.81
2023-03-10T00:02:05.778Z,240.34
2023-03-10T00:03:05.803Z,240.14
2023-03-10T00:04:05.897Z,239.08
2023-03-10T00:05:05.822Z,239.86
2023-03-10T00:06:05.880Z,239.41
2023-03-10T00:07:05.904Z,239.97
2023-03-10T00:08:05.954Z,240.76
2023-03-10T00:09:05.986Z,240.63
2023-03-10T00:10:06.035Z,241.06
2023-03-10T00:11:06.058Z,240.07
2023-03-10T00:12:06.114Z,241.21
2023-03-10T00:13:06.155Z,240.99
2023-03-10T00:14:06.235Z,239.88
2023-03-10T00:15:06.253Z,238.96
2023-03-10T00:16:06.335Z,239.27
2023-03-10T00:17:06.285Z,240.59
2023-03-10T00:18:06.322Z,241.32
2023-03-10T00:19:06.329Z,241.48
2023-03-10T00:20:06.368Z,239.68
2023-03-10T00:21:06.379Z,238.69
2023-03-10T00:22:06.410Z,237.18
2023-03-10T00:23:06.468Z,236.40
2023-03-10T00:24:06.456Z,236.83
2023-03-10T00:25:06.496Z,237.25
2023-03-10T00:26:06.513Z,238.38
2023-03-10T00:27:06.498Z,237.77
2023-03-10T00:28:06.526Z,236.38
2023-03-10T00:29:06.564Z,235.45
2023-03-10T00:30:06.575Z,234.03
2023-03-10T00:31:06.668Z,234.45
2023-03-10T00:32:06.624Z,234.29
2023-03-10T00:33:06.658Z,234.58
2023-03-10T00:34:06.675Z,234.93
2023-03-10T00:35:06.667Z,235.49
2023-03-10T00:36:06.734Z,235.09
2023-03-10T00:37:06.686Z,236.81
2023-03-10T00:38:06.746Z,235.75
2023-03-10T00:39:06.759Z,236.97
2023-03-10T00:40:06.788Z,236.24
2023-03-10T00:41:06.816Z,236.46
2023-03-10T00:42:06.832Z,237.37
2023-03-10T00:43:06.843Z,237.18
2023-03-10T00:44:06.887Z,237.38
2023-03-10T00:45:06.892Z,238.01
2023-03-10T00:46:07.012Z,237.75
2023-03-10T00:47:06.927Z,237.40
2023-03-10T00:48:06.942Z,238.57
2023-03-10T00:49:06.964Z,238.94
2023-03-10T00:50:06.988Z,238.73
2023-03-10T00:51:07.056Z,237.46
2023-03-10T00:52:07.053Z,236.01
2023-03-10T00:53:07.089Z,235.05
2023-03-10T00:54:07.078Z,234.17
2023-03-10T00:55:07.092Z,234.55
2023-03-10T00:56:07.106Z,234.41
2023-03-10T00:57:07.165Z,236.08
2023-03-10T00:58:07.202Z,236.23
2023-03-10T00:59:07.210Z,236.25
2023-03-10T01:00:07.268Z,237.17
2023-03-10T01:01:07.273Z,236.45
2023-03-10T01:02:07.296Z,236.62
2023-03-10T01:03:07.315Z,237.01
2023-03-10T01:04:07.472Z,237.84
2023-03-10T01:05:07.401Z,238.24
2023-03-10T01:06:07.406Z,237.43
2023-03-10T01:07:07.441Z,238.88
2023-03-10T01:08:07.475Z,238.55
2023-03-10T01:09:07.512Z,238.97
2023-03-10T01:10:07.553Z,239.52
2023-03-10T01:11:07.561Z,239.69
2023-03-10T01:12:07.581Z,239.70
2023-03-10T01:13:07.615Z,240.85
2023-03-10T01:14:07.671Z,240.41
2023-03-10T01:15:07.660Z,240.45
2023-03-10T01:16:07.733Z,241.78
2023-03-10T01:17:07.686Z,241.53
2023-03-10T01:18:07.706Z,241.62
2023-03-10T01:19:08.679Z,241.87
2023-03-10T01:20:07.766Z,242.25
2023-03-10T01:21:07.793Z,242.45
2023-03-10T01:22:07.820Z,242.61
2023-03-10T01:23:07.853Z,243.20
2023-03-10T01:24:07.914Z,242.79
2023-03-10T01:25:07.967Z,242.30
2023-03-10T01:26:07.982Z,241.61
2023-03-10T01:27:08.005Z,240.90
2023-03-10T01:28:08.052Z,242.72
2023-03-10T01:29:08.104Z,241.32
2023-03-10T01:30:08.148Z,239.47
2023-03-10T01:31:08.223Z,239.44
2023-03-10T01:32:08.181Z,239.04
2023-03-10T01:33:08.211Z,234.30
2023-03-10T01:34:08.254Z,231.16
2023-03-10T01:35:08.279Z,228.19
2023-03-10T01:36:08.356Z,227.11
2023-03-10T01:37:08.313Z,227.03
2023-03-10T01:38:08.398Z,228.16
2023-03-10T01:39:08.362Z,225.27
2023-03-10T01:40:08.363Z,226.02
2023-03-10T01:41:08.386Z,225.71
2023-03-10T01:42:08.422Z,226.32
2023-03-10T01:43:08.435Z,226.50
2023-03-10T01:44:08.451Z,226.16
2023-03-10T01:45:08.485Z,227.33
2023-03-10T01:46:08.507Z,227.41
2023-03-10T01:47:08.534Z,227.71
2023-03-10T01:48:08.525Z,228.02
2023-03-10T01:49:08.568Z,227.92
2023-03-10T01:50:08.605Z,228.64
2023-03-10T01:51:08.583Z,226.07
2023-03-10T01:52:08.592Z,226.07
2023-03-10T01:53:08.592Z,225.59
2023-03-10T01:54:08.639Z,227.74
2023-03-10T01:55:08.658Z,228.64
2023-03-10T01:56:08.671Z,229.21
2023-03-10T01:57:08.670Z,229.54
2023-03-10T01:58:08.717Z,229.99
2023-03-10T01:59:08.714Z,229.85
2023-03-10T02:00:08.749Z,230.69
2023-03-10T02:01:08.832Z,229.93
2023-03-10T02:02:08.818Z,229.80
2023-03-10T02:03:08.754Z,230.32
2023-03-10T02:04:08.817Z,230.24
2023-03-10T02:05:08.846Z,230.87
2023-03-10T02:06:08.847Z,229.48
2023-03-10T02:07:08.896Z,229.49
2023-03-10T02:08:08.917Z,229.58
2023-03-10T02:09:08.913Z,230.32
2023-03-10T02:10:08.973Z,228.41
2023-03-10T02:11:08.981Z,225.64
2023-03-10T02:12:08.999Z,225.37
2023-03-10T02:13:09.052Z,225.49
2023-03-10T02:14:09.067Z,225.55
2023-03-10T02:15:09.111Z,226.15
2023-03-10T02:16:09.159Z,226.39
2023-03-10T02:17:09.141Z,224.74
2023-03-10T02:18:09.232Z,223.79
2023-03-10T02:19:09.161Z,223.70
2023-03-10T02:20:09.205Z,226.30
2023-03-10T02:21:09.282Z,225.16
2023-03-10T02:22:09.260Z,226.01
2023-03-10T02:23:09.258Z,226.21
2023-03-10T02:24:09.286Z,225.45
2023-03-10T02:25:09.290Z,224.71
2023-03-10T02:26:09.351Z,227.85
2023-03-10T02:27:09.404Z,223.27
2023-03-10T02:28:09.426Z,219.16
2023-03-10T02:29:09.426Z,217.72
2023-03-10T02:30:09.440Z,214.57
2023-03-10T02:31:09.448Z,214.24
2023-03-10T02:32:09.489Z,214.56
2023-03-10T02:33:09.470Z,214.89
2023-03-10T02:34:09.513Z,216.45
2023-03-10T02:35:09.531Z,214.39
2023-03-10T02:36:09.603Z,210.91
2023-03-10T02:37:09.562Z,208.84
2023-03-10T02:38:09.640Z,207.43
2023-03-10T02:39:09.612Z,207.87
2023-03-10T02:40:09.650Z,208.36
2023-03-10T02:41:09.651Z,210.86
2023-03-10T02:42:09.721Z,212.65
2023-03-10T02:43:09.785Z,212.59
2023-03-10T02:44:09.784Z,213.76
2023-03-10T02:45:09.752Z,215.01
2023-03-10T02:46:09.943Z,214.96
2023-03-10T02:47:09.817Z,210.47
2023-03-10T02:48:09.807Z,205.97
2023-03-10T02:49:09.838Z,201.86
2023-03-10T02:50:09.872Z,202.55
2023-03-10T02:51:09.872Z,202.27
2023-03-10T02:52:09.922Z,204.50
2023-03-10T02:53:09.947Z,205.25
2023-03-10T02:54:10.014Z,206.85
2023-03-10T02:55:10.017Z,208.51
2023-03-10T02:56:10.005Z,208.20
2023-03-10T02:57:10.073Z,204.35
2023-03-10T02:58:10.102Z,204.44
2023-03-10T02:59:10.108Z,203.24
2023-03-10T03:00:10.170Z,202.75
2023-03-10T03:01:10.751Z,202.90
2023-03-10T03:02:10.222Z,203.97
2023-03-10T03:03:10.188Z,206.29
2023-03-10T03:04:10.261Z,207.52
2023-03-10T03:05:10.277Z,209.11
2023-03-10T03:06:10.299Z,207.11
2023-03-10T03:07:10.276Z,202.75
2023-03-10T03:08:10.282Z,193.83
2023-03-10T03:09:10.364Z,188.15
2023-03-10T03:10:10.375Z,180.38
2023-03-10T03:11:10.380Z,176.15
2023-03-10T03:12:10.487Z,174.02
2023-03-10T03:13:10.486Z,174.20
2023-03-10T03:14:10.544Z,175.28
2023-03-10T03:15:10.565Z,176.40
2023-03-10T03:16:10.593Z,177.80
2023-03-10T03:17:10.603Z,170.87
2023-03-10T03:18:10.690Z,169.47
2023-03-10T03:19:10.749Z,163.42
2023-03-10T03:20:10.750Z,161.81
2023-03-10T03:21:10.790Z,163.84
2023-03-10T03:22:10.817Z,166.65
2023-03-10T03:23:10.865Z,170.14
2023-03-10T03:24:10.897Z,171.86
2023-03-10T03:25:10.976Z,170.65
2023-03-10T03:26:10.970Z,169.36
2023-03-10T03:27:11.020Z,166.10
2023-03-10T03:28:11.069Z,164.93
2023-03-10T03:29:11.168Z,162.67
2023-03-10T03:30:11.171Z,161.36
2023-03-10T03:31:11.211Z,159.83
2023-03-10T03:32:11.492Z,160.72
2023-03-10T03:33:11.365Z,162.13
2023-03-10T03:34:11.708Z,166.75
2023-03-10T03:35:11.462Z,168.96
2023-03-10T03:36:11.496Z,171.67
2023-03-10T03:37:11.574Z,174.32
2023-03-10T03:38:11.582Z,171.76
2023-03-10T03:39:11.677Z,171.41
2023-03-10T03:40:11.691Z,170.56
2023-03-10T03:41:11.744Z,173.53
2023-03-10T03:42:11.721Z,177.07
2023-03-10T03:43:11.788Z,179.26
2023-03-10T03:44:11.817Z,181.00
2023-03-10T03:45:11.870Z,184.13
2023-03-10T03:46:11.886Z,182.16
2023-03-10T03:47:11.887Z,177.34
2023-03-10T03:48:11.976Z,172.84
2023-03-10T03:49:12.003Z,174.03
2023-03-10T03:50:12.099Z,172.73
2023-03-10T03:51:12.066Z,173.86
2023-03-10T03:52:12.159Z,170.22
2023-03-10T03:53:12.143Z,166.03
2023-03-10T03:54:12.220Z,158.10
2023-03-10T03:55:12.272Z,151.37
2023-03-10T03:56:12.347Z,149.75
2023-03-10T03:57:12.397Z,151.56
2023-03-10T03:58:12.468Z,149.59
2023-03-10T03:59:12.537Z,148.54
2023-03-10T04:00:12.574Z,145.82
2023-03-10T04:01:12.600Z,143.47
2023-03-10T04:02:12.725Z,137.36
2023-03-10T04:03:12.774Z,132.00
2023-03-10T04:04:12.771Z,125.11
2023-03-10T04:05:12.833Z,120.85
2023-03-10T04:06:12.899Z,114.36
2023-03-10T04:07:12.973Z,107.11
2023-03-10T04:08:13.034Z,100.38
2023-03-10T04:09:13.082Z,101.14
2023-03-10T04:10:13.170Z,101.95
2023-03-10T04:11:13.191Z,98.15
2023-03-10T04:12:13.279Z,94.07
2023-03-10T04:13:13.351Z,91.89
2023-03-10T04:14:13.396Z,90.27
2023-03-10T04:15:13.471Z,84.90
2023-03-10T04:16:13.550Z,84.89
2023-03-10T04:17:13.582Z,85.74
2023-03-10T04:18:13.601Z,91.80
2023-03-10T04:19:13.707Z,95.19
2023-03-10T04:20:13.768Z,99.85
2023-03-10T04:21:13.824Z,104.54
2023-03-10T04:22:13.888Z,104.11
2023-03-10T04:23:13.918Z,98.44
2023-03-10T04:24:13.972Z,96.56
2023-03-10T04:25:14.055Z,92.83
2023-03-10T04:26:14.091Z,90.70
2023-03-10T04:27:14.162Z,86.16
2023-03-10T04:28:14.211Z,87.56
2023-03-10T04:29:14.302Z,91.21
2023-03-10T04:30:14.319Z,95.58
2023-03-10T04:31:14.425Z,102.92
2023-03-10T04:32:14.488Z,110.16
2023-03-10T04:33:14.525Z,116.11
2023-03-10T04:34:14.568Z,117.93
2023-03-10T04:35:14.710Z,114.79
2023-03-10T04:36:14.720Z,115.78
2023-03-10T04:37:14.756Z,116.62
2023-03-10T04:38:14.803Z,119.64
2023-03-10T04:39:14.859Z,126.12
2023-03-10T04:40:14.945Z,133.03
2023-03-10T04:41:14.979Z,137.31
2023-03-10T04:42:15.027Z,143.36
2023-03-10T04:43:15.086Z,143.58
2023-03-10T04:44:29.791Z,143.02
2023-03-10T04:45:16.077Z,143.18
2023-03-10T04:46:15.110Z,144.26
2023-03-10T04:47:15.118Z,147.51
2023-03-10T04:48:15.097Z,154.31
2023-03-10T04:49:15.106Z,163.54
2023-03-10T04:50:15.119Z,165.32
2023-03-10T04:51:15.103Z,165.63
2023-03-10T04:52:15.124Z,168.95
2023-03-10T04:53:15.126Z,169.94
2023-03-10T04:54:15.134Z,172.77
2023-03-10T04:55:15.170Z,176.83
2023-03-10T04:56:15.181Z,178.89
2023-03-10T04:57:15.140Z,178.31
2023-03-10T04:58:15.134Z,183.65
2023-03-10T04:59:15.170Z,183.25
2023-03-10T05:00:15.211Z,185.00
2023-03-10T05:01:15.250Z,184.55
2023-03-10T05:02:15.306Z,188.47
2023-03-10T05:03:15.260Z,193.54
2023-03-10T05:04:15.306Z,196.26
2023-03-10T05:05:15.330Z,195.72
2023-03-10T05:06:15.304Z,191.14
2023-03-10T05:07:15.351Z,193.38
2023-03-10T05:08:15.347Z,194.31
2023-03-10T05:09:15.433Z,195.76
2023-03-10T05:10:15.416Z,196.59
2023-03-10T05:11:15.475Z,192.58
2023-03-10T05:12:15.439Z,188.81
2023-03-10T05:13:15.495Z,179.79
2023-03-10T05:14:15.492Z,176.74
2023-03-10T05:15:15.567Z,175.69
2023-03-10T05:16:15.683Z,177.76
2023-03-10T05:17:15.644Z,178.25
2023-03-10T05:18:15.692Z,180.48
2023-03-10T05:19:15.714Z,184.96
2023-03-10T05:20:15.770Z,187.45
2023-03-10T05:21:15.770Z,183.63
2023-03-10T05:22:15.847Z,173.92
2023-03-10T05:23:15.869Z,169.83
2023-03-10T05:24:15.936Z,169.14
2023-03-10T05:25:15.938Z,169.52
2023-03-10T05:26:16.013Z,170.10
2023-03-10T05:27:16.019Z,169.36
2023-03-10T05:28:16.041Z,171.09
2023-03-10T05:29:16.107Z,174.99
2023-03-10T05:30:16.126Z,177.90
2023-03-10T05:31:16.230Z,179.30
2023-03-10T05:32:16.343Z,179.94
2023-03-10T05:33:16.239Z,184.05
2023-03-10T05:34:16.279Z,187.00
2023-03-10T05:35:16.269Z,184.01
2023-03-10T05:36:16.333Z,183.51
2023-03-10T05:37:16.379Z,184.79
2023-03-10T05:38:16.372Z,188.06
2023-03-10T05:39:16.386Z,191.91
2023-03-10T05:40:16.423Z,194.56
2023-03-10T05:41:16.436Z,189.23
2023-03-10T05:42:16.451Z,184.16
2023-03-10T05:43:17.734Z,183.19
2023-03-10T05:44:16.535Z,185.10
2023-03-10T05:45:16.546Z,185.04
2023-03-10T05:46:16.582Z,186.70
2023-03-10T05:47:16.613Z,188.90
2023-03-10T05:48:16.658Z,191.44
2023-03-10T05:49:16.664Z,188.85
2023-03-10T05:50:16.734Z,190.07
2023-03-10T05:51:16.789Z,192.15
2023-03-10T05:52:16.805Z,195.29
2023-03-10T05:53:16.850Z,199.39
2023-03-10T05:54:16.847Z,201.97
2023-03-10T05:55:16.872Z,205.91
2023-03-10T05:56:16.875Z,208.37
2023-03-10T05:57:16.890Z,210.09
2023-03-10T05:58:16.918Z,212.67
2023-03-10T05:59:16.928Z,213.45
2023-03-10T06:01:24.029Z,216.49
2023-03-10T06:02:17.020Z,216.65
2023-03-10T06:03:17.191Z,217.19
2023-03-10T06:04:17.067Z,218.13
2023-03-10T06:05:17.032Z,220.55
2023-03-10T06:06:17.025Z,222.95
2023-03-10T06:07:16.995Z,225.52
2023-03-10T06:08:17.029Z,228.87
2023-03-10T06:09:17.064Z,230.47
2023-03-10T06:10:17.056Z,230.48
2023-03-10T06:11:17.028Z,229.87
2023-03-10T06:12:16.992Z,233.42
2023-03-10T06:13:17.068Z,235.69
2023-03-10T06:14:17.043Z,235.43
2023-03-10T06:15:16.991Z,236.73
2023-03-10T06:16:17.059Z,238.12
2023-03-10T06:17:19.436Z,236.88
2023-03-10T06:18:17.004Z,236.92
2023-03-10T06:20:16.976Z,237.23
2023-03-10T06:21:16.996Z,238.50
2023-03-10T06:22:17.008Z,239.46
2023-03-10T06:23:17.050Z,241.40
2023-03-10T06:24:17.057Z,243.32
2023-03-10T06:25:16.992Z,242.59
2023-03-10T06:27:17.035Z,240.15
2023-03-10T06:28:17.009Z,238.42
2023-03-10T06:29:17.366Z,239.62
2023-03-10T06:30:17.033Z,240.56
2023-03-10T06:31:17.101Z,242.01
2023-03-10T06:32:17.068Z,243.61
2023-03-10T06:33:17.019Z,244.14
2023-03-10T06:34:17.317Z,248.31
2023-03-10T06:35:17.083Z,250.37
2023-03-10T06:36:17.105Z,250.63
2023-03-10T06:37:17.081Z,250.00
2023-03-10T06:38:17.156Z,249.22
2023-03-10T06:39:17.837Z,250.00
2023-03-10T06:40:17.024Z,249.17
2023-03-10T06:41:17.070Z,250.00
2023-03-10T06:42:17.077Z,249.55
2023-03-10T06:46:24.165Z,250.00
2023-03-10T06:49:17.364Z,247.61
2023-03-10T07:00:17.383Z,243.21
2023-03-10T07:24:17.374Z,241.89
2023-03-10T07:25:17.418Z,242.00
2023-03-10T07:26:17.487Z,241.72
2023-03-10T07:27:17.501Z,240.24
2023-03-10T07:28:17.590Z,240.77
2023-03-10T07:29:17.589Z,239.13
2023-03-10T07:30:17.601Z,239.31
2023-03-10T07:31:17.697Z,239.63
2023-03-10T07:32:17.690Z,239.02
2023-03-10T07:33:18.251Z,239.86
2023-03-10T07:34:17.674Z,239.94
2023-03-10T07:35:17.716Z,240.21
2023-03-10T07:36:17.811Z,240.24
2023-03-10T07:37:17.766Z,240.34
2023-03-10T07:38:17.767Z,240.01
2023-03-10T07:39:17.860Z,239.69
2023-03-10T07:40:18.366Z,241.25
2023-03-10T07:41:17.913Z,239.62
2023-03-10T07:42:17.980Z,239.41
2023-03-10T07:43:17.977Z,239.70
2023-03-10T07:45:18.073Z,239.76
2023-03-10T07:46:18.166Z,240.22
2023-03-10T07:47:18.138Z,239.49
2023-03-10T07:48:18.145Z,238.97
2023-03-10T07:49:18.903Z,239.12
2023-03-10T07:50:18.295Z,240.03
2023-03-10T07:51:18.284Z,239.27
2023-03-10T07:52:18.308Z,239.02
2023-03-10T07:53:18.382Z,239.16
2023-03-10T07:54:18.464Z,239.60
2023-03-10T07:55:18.500Z,239.03
2023-03-10T08:02:18.760Z,239.87
2023-03-10T08:03:18.840Z,239.41
2023-03-10T08:04:18.980Z,240.44
2023-03-10T08:05:18.946Z,239.71
2023-03-10T08:06:18.936Z,240.26
2023-03-10T08:07:18.970Z,239.54
2023-03-10T08:08:19.857Z,240.15
2023-03-10T08:09:19.096Z,239.89
2023-03-10T08:10:19.119Z,239.78
2023-03-10T08:11:19.214Z,239.34
2023-03-10T08:12:19.229Z,239.16
2023-03-10T08:13:19.386Z,238.24
2023-03-10T08:14:21.039Z,241.41
2023-03-10T08:15:19.340Z,240.94
2023-03-10T08:16:19.460Z,238.04
2023-03-10T08:17:19.448Z,240.46
2023-03-10T08:18:19.467Z,239.83
2023-03-10T08:19:19.499Z,239.47
2023-03-10T08:20:19.574Z,239.31
2023-03-10T08:21:19.580Z,240.64
2023-03-10T08:22:22.278Z,239.23
2023-03-10T08:24:19.629Z,239.19
2023-03-10T08:25:19.628Z,239.34
2023-03-10T08:26:19.614Z,238.94
2023-03-10T08:27:20.957Z,239.05
2023-03-10T08:28:19.591Z,238.25
2023-03-10T08:32:19.704Z,238.94
2023-03-10T08:33:19.574Z,211.60
2023-03-10T08:34:19.558Z,198.50
2023-03-10T08:38:19.592Z,245.84
2023-03-10T08:39:19.548Z,247.87
2023-03-10T08:40:21.946Z,250.55
2023-03-10T08:41:19.622Z,250.00
2023-03-10T08:42:19.725Z,236.29
2023-03-10T08:43:20.372Z,202.80
2023-03-10T08:44:19.786Z,194.46
2023-03-10T08:45:19.776Z,184.29
2023-03-10T08:46:19.908Z,176.13
2023-03-10T08:47:19.859Z,176.89
2023-03-10T08:48:19.860Z,176.34
2023-03-10T08:49:19.901Z,173.93
2023-03-10T08:50:19.903Z,171.06
2023-03-10T08:51:19.968Z,169.21
2023-03-10T08:52:19.971Z,170.08
2023-03-10T08:53:20.042Z,171.97
2023-03-10T08:54:20.075Z,180.47
2023-03-10T08:55:20.074Z,199.99
2023-03-10T08:56:20.110Z,219.30
2023-03-10T08:57:20.136Z,225.82
2023-03-10T08:58:20.193Z,230.78
2023-03-10T08:59:20.234Z,234.53
2023-03-10T09:00:20.287Z,238.38
2023-03-10T09:01:20.401Z,240.40
2023-03-10T09:02:20.448Z,243.65
2023-03-10T09:03:20.476Z,247.17
2023-03-10T09:04:20.484Z,248.40
2023-03-10T09:05:21.791Z,250.00
2023-03-10T09:06:20.584Z,250.00
2023-03-10T09:07:20.630Z,246.47
2023-03-10T09:08:20.653Z,223.43
2023-03-10T09:09:20.723Z,238.88
2023-03-10T09:10:20.761Z,247.76
2023-03-10T09:11:20.822Z,248.12
2023-03-10T09:12:20.831Z,246.74
2023-03-10T09:13:20.906Z,248.45
2023-03-10T09:14:20.939Z,248.81
2023-03-10T09:15:20.953Z,249.09
2023-03-10T09:16:21.041Z,249.60
2023-03-10T09:17:21.004Z,249.13
2023-03-10T09:18:21.041Z,249.52
2023-03-10T09:19:21.045Z,249.38
2023-03-10T09:20:21.093Z,249.88
2023-03-10T09:21:21.095Z,249.65
2023-03-10T09:22:21.114Z,250.00
2023-03-10T09:23:21.112Z,249.74
2023-03-10T09:24:21.118Z,249.44
2023-03-10T09:25:21.448Z,250.00
2023-03-10T09:26:21.154Z,249.61
2023-03-10T09:27:21.136Z,249.60
2023-03-10T09:28:21.195Z,249.89
2023-03-10T09:29:27.050Z,250.00
2023-03-10T09:30:22.191Z,250.09
2023-03-10T09:31:21.543Z,250.49
2023-03-10T09:32:21.235Z,251.16
2023-03-10T09:33:21.209Z,252.52
2023-03-10T09:34:21.049Z,254.17
2023-03-10T09:35:21.118Z,249.96
2023-03-10T09:36:21.589Z,249.42
2023-03-10T09:37:21.042Z,250.00
2023-03-10T09:38:21.018Z,250.00
2023-03-10T09:39:21.036Z,250.00
2023-03-10T09:40:20.991Z,248.20
2023-03-10T09:41:21.509Z,248.20
2023-03-10T09:42:29.195Z,248.19
2023-03-10T09:43:21.878Z,248.27
2023-03-10T09:44:20.878Z,248.35
2023-03-10T09:45:20.811Z,248.67
2023-03-10T09:46:20.893Z,249.74
2023-03-10T09:47:20.953Z,250.33
2023-03-10T09:48:20.767Z,248.49
2023-03-10T09:49:20.746Z,244.01
2023-03-10T09:50:20.704Z,244.33
2023-03-10T09:51:20.738Z,244.43
2023-03-10T09:52:20.703Z,243.81
2023-03-10T09:53:20.665Z,244.70
2023-03-10T09:54:20.655Z,243.23
2023-03-10T09:55:20.643Z,234.67
2023-03-10T09:56:20.662Z,238.93
2023-03-10T09:57:20.939Z,237.03
2023-03-10T09:58:20.632Z,240.08
2023-03-10T09:59:20.572Z,240.23
2023-03-10T10:00:20.535Z,240.40
2023-03-10T10:01:20.595Z,241.60
2023-03-10T10:02:20.566Z,239.56
2023-03-10T10:03:20.576Z,240.17
2023-03-10T10:04:20.800Z,239.88
2023-03-10T10:05:20.542Z,240.43
2023-03-10T10:06:20.533Z,239.91
2023-03-10T10:07:20.591Z,238.45
2023-03-10T10:08:20.589Z,238.34
2023-03-10T10:09:20.606Z,238.64
2023-03-10T10:12:20.615Z,226.01
2023-03-10T10:13:20.564Z,221.04
2023-03-10T10:14:32.055Z,217.68
2023-03-10T10:15:21.568Z,191.31
2023-03-10T10:16:33.600Z,166.11
2023-03-10T10:17:21.563Z,146.26
2023-03-10T10:18:23.280Z,134.61
2023-03-10T10:22:20.926Z,109.18
2023-03-10T10:23:20.493Z,106.12
2023-03-10T10:24:20.441Z,106.30
2023-03-10T10:25:20.449Z,110.50
2023-03-10T10:26:20.434Z,111.33
2023-03-10T10:27:22.376Z,106.64
2023-03-10T10:28:20.441Z,99.35
2023-03-10T10:29:20.482Z,93.92
2023-03-10T10:30:20.425Z,89.34
2023-03-10T10:31:20.586Z,86.38
2023-03-10T10:32:20.497Z,89.23
2023-03-10T10:33:20.963Z,88.77
2023-03-10T10:34:20.461Z,87.32
2023-03-10T10:35:20.466Z,89.62
2023-03-10T10:36:20.476Z,84.96
2023-03-10T10:37:20.443Z,78.63
2023-03-10T10:38:20.422Z,91.69
2023-03-10T10:39:20.444Z,96.24
2023-03-10T10:40:20.438Z,97.44
2023-03-10T10:41:20.456Z,115.70
2023-03-10T10:42:20.465Z,134.58
2023-03-10T10:43:20.961Z,152.33
2023-03-10T10:44:20.479Z,170.19
2023-03-10T10:45:20.429Z,175.51
2023-03-10T10:46:20.512Z,179.28
2023-03-10T10:47:20.458Z,180.82
2023-03-10T10:48:20.471Z,180.94
2023-03-10T10:49:20.420Z,156.32
2023-03-10T10:50:20.429Z,167.51
2023-03-10T10:51:20.440Z,168.65
2023-03-10T10:52:20.407Z,161.66
2023-03-10T10:53:20.434Z,170.86
2023-03-10T10:55:20.394Z,184.37
2023-03-10T11:06:20.305Z,114.70
2023-03-10T11:07:20.269Z,115.30
2023-03-10T11:08:20.235Z,106.94
2023-03-10T11:09:20.292Z,102.50
2023-03-10T11:10:20.387Z,90.35
2023-03-10T11:11:20.233Z,81.04
2023-03-10T11:12:20.600Z,78.78
2023-03-10T11:13:20.261Z,79.12
2023-03-10T11:14:20.306Z,87.86
2023-03-10T11:15:20.311Z,80.05
2023-03-10T11:16:20.276Z,74.57
2023-03-10T11:17:20.336Z,77.94
2023-03-10T11:18:20.479Z,76.23
2023-03-10T11:19:20.421Z,85.95
2023-03-10T11:20:20.452Z,80.27
2023-03-10T11:21:20.470Z,79.07
2023-03-10T11:22:20.505Z,84.87
2023-03-10T11:23:20.555Z,89.17
2023-03-10T11:24:20.624Z,102.51
2023-03-10T11:25:20.660Z,90.14
2023-03-10T11:26:20.700Z,91.50
2023-03-10T11:27:20.754Z,98.80
2023-03-10T11:28:20.762Z,103.42
2023-03-10T11:29:20.865Z,107.40
2023-03-10T11:30:20.840Z,92.34
2023-03-10T11:31:20.973Z,77.38
2023-03-10T11:32:20.995Z,73.41
2023-03-10T11:33:20.955Z,73.80
2023-03-10T11:34:21.058Z,99.24
2023-03-10T11:35:21.482Z,148.26
2023-03-10T11:36:21.123Z,165.09
2023-03-10T11:37:21.110Z,196.27
2023-03-10T11:38:21.510Z,217.59
2023-03-10T11:39:21.205Z,227.88
2023-03-10T11:40:21.214Z,232.15
2023-03-10T11:41:21.299Z,233.11
2023-03-10T11:42:21.325Z,237.24
2023-03-10T11:43:21.665Z,239.85
2023-03-10T11:44:21.402Z,244.17
2023-03-10T11:45:21.403Z,245.47
2023-03-10T11:46:21.438Z,248.21
2023-03-10T11:47:21.505Z,248.27
2023-03-10T11:48:21.536Z,249.88
2023-03-10T11:50:21.587Z,250.00
2023-03-10T11:51:21.607Z,250.00
2023-03-10T11:52:21.650Z,249.69
2023-03-10T11:54:21.936Z,249.80
2023-03-10T11:55:21.683Z,249.75
2023-03-10T11:58:21.768Z,249.81
2023-03-10T11:59:21.852Z,249.73
2023-03-10T12:00:21.825Z,249.17
2023-03-10T12:01:21.874Z,249.00
2023-03-10T12:11:22.072Z,247.43
2023-03-10T12:15:22.105Z,244.40
2023-03-10T12:16:22.209Z,243.93
2023-03-10T12:17:22.164Z,245.02
2023-03-10T12:19:22.227Z,244.16
2023-03-10T12:20:22.184Z,243.27
2023-03-10T12:21:22.277Z,242.64
2023-03-10T12:22:22.242Z,243.63
2023-03-10T12:23:22.271Z,243.59
2023-03-10T12:24:22.315Z,243.76
2023-03-10T12:25:22.330Z,242.00
2023-03-10T12:26:22.323Z,243.03
2023-03-10T12:27:22.361Z,241.84
2023-03-10T12:28:22.355Z,242.25
2023-03-10T12:29:22.463Z,242.38
2023-03-10T12:30:23.941Z,241.49
2023-03-10T12:31:22.407Z,240.75
2023-03-10T12:32:23.098Z,241.57
2023-03-10T12:33:22.322Z,240.96
2023-03-10T12:34:22.546Z,240.79
2023-03-10T12:35:22.329Z,242.40
2023-03-10T12:36:23.273Z,241.58
2023-03-10T12:37:22.324Z,241.38
2023-03-10T12:38:22.397Z,237.57
2023-03-10T12:39:22.488Z,238.61
2023-03-10T12:40:22.259Z,238.47
2023-03-10T12:41:22.275Z,239.46
2023-03-10T12:42:23.283Z,237.06
2023-03-10T12:43:22.287Z,235.50
2023-03-10T12:44:22.289Z,236.02
2023-03-10T12:45:22.251Z,234.84
2023-03-10T12:46:22.278Z,236.17
2023-03-10T12:47:22.284Z,234.69
2023-03-10T13:26:27.831Z,25.00
2023-03-10T13:27:27.789Z,25.00
2023-03-10T13:28:27.747Z,25.00
2023-03-10T13:29:27.775Z,25.00
2023-03-10T13:30:27.806Z,25.00
2023-03-10T13:31:27.829Z,30.69
2023-03-10T13:32:27.781Z,30.23
2023-03-10T13:33:27.791Z,27.28
2023-03-10T13:34:27.737Z,28.45
2023-03-10T13:35:27.749Z,25.00
2023-03-10T13:36:27.750Z,26.87
2023-03-10T13:37:27.721Z,27.11
2023-03-10T13:38:27.723Z,30.68
2023-03-10T13:39:27.968Z,34.64
2023-03-10T13:40:27.724Z,35.73
2023-03-10T13:41:27.717Z,37.81
2023-03-10T13:42:40.941Z,32.07
2023-03-10T13:43:28.694Z,32.34
2023-03-10T13:44:27.650Z,28.98
2023-03-10T13:45:28.946Z,27.81
2023-03-10T13:46:27.833Z,30.35
2023-03-10T13:47:27.672Z,29.36
2023-03-10T13:48:27.653Z,30.32
2023-03-10T13:49:27.665Z,26.90
2023-03-10T13:50:27.673Z,30.85
2023-03-10T13:51:29.141Z,30.56
2023-03-10T13:52:27.623Z,31.11
2023-03-10T13:53:27.630Z,29.97
2023-03-10T13:54:27.591Z,29.49
2023-03-10T13:55:27.619Z,34.30
2023-03-10T13:56:27.691Z,38.26
2023-03-10T13:57:28.549Z,32.11
2023-03-10T13:58:27.566Z,29.16
2023-03-10T13:59:27.578Z,32.39
2023-03-10T14:00:27.582Z,34.10
2023-03-10T14:01:27.682Z,32.96
2023-03-10T14:02:27.572Z,35.15
2023-03-10T14:03:28.959Z,34.94
2023-03-10T14:04:27.529Z,33.17
2023-03-10T14:05:27.546Z,33.47
2023-03-10T14:06:27.538Z,32.79
2023-03-10T14:07:27.542Z,35.42
2023-03-10T14:08:27.507Z,40.22
2023-03-10T14:09:27.576Z,33.93
2023-03-10T14:10:27.614Z,31.42
2023-03-10T14:11:27.621Z,30.92
2023-03-10T14:12:27.578Z,31.90
2023-03-10T14:13:27.563Z,29.79
2023-03-10T14:14:27.630Z,32.51
2023-03-10T14:15:27.630Z,23.27
2023-03-10T14:16:27.678Z,29.07
2023-03-10T14:17:27.702Z,30.06
2023-03-10T14:18:27.731Z,35.90
2023-03-10T14:19:27.654Z,35.87
2023-03-10T14:20:27.708Z,38.76
2023-03-10T14:21:27.702Z,42.89
2023-03-10T14:22:27.684Z,38.77
2023-03-10T14:23:27.719Z,38.97
2023-03-10T14:24:27.718Z,45.05
2023-03-10T14:25:27.767Z,42.80
2023-03-10T14:26:27.809Z,43.32
2023-03-10T14:27:27.761Z,43.89
2023-03-10T14:28:27.829Z,45.19
2023-03-10T14:29:27.860Z,45.77
2023-03-10T15:15:28.691Z,47.51
2023-03-10T15:17:28.665Z,42.02
2023-03-10T15:18:28.789Z,47.28
2023-03-10T15:19:28.727Z,42.83
2023-03-10T15:20:28.805Z,43.14
2023-03-10T15:21:28.778Z,43.65
2023-03-10T15:22:28.758Z,42.18
2023-03-10T15:24:28.824Z,40.24
2023-03-10T15:25:28.876Z,40.86